createdAt,value
2022-11-24T00:01:17.854Z,12.00
2022-11-24T00:03:51.980Z,11.20
2022-11-24T00:06:18.771Z,10.60
2022-11-24T00:08:46.858Z,10.90
2022-11-24T00:11:16.140Z,11.60
2022-11-24T00:13:43.256Z,11.40
2022-11-24T00:16:17.656Z,11.90
2022-11-24T00:18:47.280Z,11.50
2022-11-24T00:21:15.298Z,11.60
2022-11-24T00:23:42.194Z,11.30
2022-11-24T00:26:11.459Z,10.90
2022-11-24T00:28:38.785Z,10.90
2022-11-24T00:31:17.272Z,11.00
2022-11-24T00:33:44.799Z,11.30
2022-11-24T00:36:11.685Z,10.90
2022-11-24T00:38:38.725Z,10.90
2022-11-24T00:41:06.017Z,11.00
2022-11-24T00:47:23.669Z,11.00
2022-11-24T00:49:50.447Z,11.40
2022-11-24T00:52:17.209Z,10.70
2022-11-24T00:54:43.978Z,11.40
2022-11-24T00:57:10.765Z,11.20
2022-11-24T00:59:37.674Z,11.30
2022-11-24T01:02:04.498Z,10.90
2022-11-24T01:04:31.452Z,11.30
2022-11-24T01:06:58.498Z,10.50
2022-11-24T01:09:25.294Z,10.70
2022-11-24T01:12:01.333Z,10.50
2022-11-24T01:14:28.636Z,11.00
2022-11-24T01:16:55.665Z,11.20
2022-11-24T01:19:23.113Z,10.80
2022-11-24T01:21:50.579Z,10.60
2022-11-24T01:24:18.503Z,10.90
2022-11-24T01:26:45.353Z,10.50
2022-11-24T01:29:12.404Z,10.40
2022-11-24T01:31:39.927Z,11.20
2022-11-24T01:34:06.895Z,10.90
2022-11-24T01:36:34.112Z,10.40
2022-11-24T01:39:00.957Z,10.50
2022-11-24T01:41:27.941Z,10.50
2022-11-24T01:43:55.822Z,11.50
2022-11-24T01:46:39.163Z,10.70
2022-11-24T01:49:08.711Z,11.20
2022-11-24T01:51:42.083Z,10.90
2022-11-24T01:54:18.369Z,10.80
2022-11-24T01:56:49.624Z,11.10
2022-11-24T01:59:18.465Z,10.50
2022-11-24T02:01:48.444Z,11.10
2022-11-24T02:04:20.031Z,11.10
2022-11-24T02:06:47.841Z,11.60
2022-11-24T02:09:25.056Z,11.20
2022-11-24T02:11:53.716Z,11.40
2022-11-24T02:14:23.885Z,11.40
2022-11-24T02:16:51.631Z,11.40
2022-11-24T02:19:33.415Z,11.20
2022-11-24T02:22:01.629Z,11.80
2022-11-24T02:24:42.945Z,12.10
2022-11-24T02:27:11.675Z,12.60
2022-11-24T02:29:40.019Z,12.10
2022-11-24T02:32:08.692Z,10.70
2022-11-24T02:34:36.658Z,11.10
2022-11-24T02:37:03.617Z,11.00
2022-11-24T02:39:30.449Z,12.20
2022-11-24T02:42:01.199Z,11.80
2022-11-24T02:44:35.737Z,11.70
2022-11-24T02:47:08.291Z,12.00
2022-11-24T02:49:35.431Z,12.00
2022-11-24T02:52:03.175Z,11.90
2022-11-24T02:54:30.215Z,12.20
2022-11-24T02:56:57.088Z,11.90
2022-11-24T02:59:23.907Z,11.80
2022-11-24T03:01:50.900Z,11.70
2022-11-24T03:04:17.753Z,11.00
2022-11-24T03:06:44.532Z,10.90
2022-11-24T03:09:11.686Z,10.90
2022-11-24T03:11:40.405Z,10.70
2022-11-24T03:14:07.578Z,11.20
2022-11-24T03:16:34.478Z,11.70
2022-11-24T03:19:02.085Z,11.70
2022-11-24T03:21:30.029Z,11.30
2022-11-24T03:23:56.917Z,11.90
2022-11-24T03:26:25.935Z,11.70
2022-11-24T03:28:57.300Z,11.60
2022-11-24T03:31:24.757Z,11.50
2022-11-24T03:33:51.750Z,11.80
2022-11-24T03:36:18.996Z,11.40
2022-11-24T03:38:46.055Z,11.30
2022-11-24T03:41:13.378Z,11.70
2022-11-24T03:43:43.716Z,11.40
2022-11-24T03:46:11.896Z,11.50
2022-11-24T03:48:38.987Z,12.10
2022-11-24T03:51:06.032Z,11.60
2022-11-24T03:53:33.903Z,11.60
2022-11-24T03:56:02.049Z,11.20
2022-11-24T03:58:30.006Z,11.00
2022-11-24T04:00:57.475Z,11.60
2022-11-24T04:03:25.427Z,11.60
2022-11-24T04:05:52.498Z,11.20
2022-11-24T04:08:19.441Z,11.50
2022-11-24T04:10:53.229Z,11.10
2022-11-24T04:13:22.763Z,11.20
2022-11-24T04:15:49.620Z,11.20
2022-11-24T04:18:16.427Z,11.00
2022-11-24T04:20:43.589Z,11.60
2022-11-24T04:23:10.972Z,11.90
2022-11-24T04:25:37.761Z,11.30
2022-11-24T04:28:04.702Z,11.90
2022-11-24T04:30:31.726Z,12.00
2022-11-24T04:32:58.996Z,11.80
2022-11-24T04:35:25.900Z,11.80
2022-11-24T04:37:52.720Z,11.50
2022-11-24T04:40:19.788Z,12.90
2022-11-24T04:42:54.722Z,12.30
2022-11-24T04:45:22.410Z,12.70
2022-11-24T04:47:49.351Z,12.70
2022-11-24T04:50:16.759Z,12.90
2022-11-24T04:52:43.693Z,12.60
2022-11-24T04:55:10.938Z,11.60
2022-11-24T04:57:38.084Z,11.10
2022-11-24T05:00:05.434Z,12.40
2022-11-24T05:02:32.303Z,12.00
2022-11-24T05:04:59.048Z,11.50
2022-11-24T05:07:25.809Z,12.40
2022-11-24T05:10:11.294Z,12.50
2022-11-24T05:12:39.479Z,12.70
2022-11-24T05:15:07.592Z,12.40
2022-11-24T05:17:36.992Z,11.80
2022-11-24T05:20:05.714Z,11.90
2022-11-24T05:22:32.737Z,12.30
2022-11-24T05:24:59.424Z,12.90
2022-11-24T05:27:26.273Z,12.20
2022-11-24T05:29:52.962Z,11.90
2022-11-24T05:32:20.820Z,11.70
2022-11-24T05:34:48.003Z,11.80
2022-11-24T05:37:14.836Z,11.10
2022-11-24T05:39:41.489Z,12.10
2022-11-24T05:42:27.625Z,12.10
2022-11-24T05:44:54.432Z,11.80
2022-11-24T05:47:21.823Z,11.70
2022-11-24T05:49:48.529Z,10.90
2022-11-24T05:52:15.849Z,11.30
2022-11-24T05:54:42.669Z,11.20
2022-11-24T05:57:09.863Z,11.80
2022-11-24T05:59:36.531Z,12.00
2022-11-24T06:02:03.521Z,11.80
2022-11-24T06:04:30.401Z,12.30
2022-11-24T06:06:57.143Z,11.40
2022-11-24T06:09:23.859Z,11.50
2022-11-24T06:11:50.540Z,10.80
2022-11-24T06:14:17.228Z,11.00
2022-11-24T06:16:44.168Z,10.80
2022-11-24T06:19:11.282Z,10.80
2022-11-24T06:21:38.288Z,12.50
2022-11-24T06:24:05.575Z,11.60
2022-11-24T06:26:32.299Z,11.60
2022-11-24T06:28:59.562Z,11.60
2022-11-24T06:31:26.531Z,11.90
2022-11-24T06:33:53.807Z,10.50
2022-11-24T06:36:20.539Z,11.00
2022-11-24T06:38:47.274Z,11.90
2022-11-24T06:41:15.797Z,10.90
2022-11-24T06:43:43.219Z,10.50
2022-11-24T06:46:10.680Z,11.00
2022-11-24T06:48:37.977Z,10.80
2022-11-24T06:51:07.213Z,9.90
2022-11-24T06:53:39.997Z,10.10
2022-11-24T06:56:15.720Z,10.40
2022-11-24T06:58:45.753Z,9.80
2022-11-24T07:01:26.948Z,11.80
2022-11-24T07:03:54.813Z,10.30
2022-11-24T07:06:23.440Z,10.20
2022-11-24T07:08:50.451Z,11.70
2022-11-24T07:11:20.477Z,13.00
2022-11-24T07:13:47.660Z,11.90
2022-11-24T07:16:20.186Z,12.00
2022-11-24T07:18:48.215Z,11.20
2022-11-24T07:21:15.087Z,10.40
2022-11-24T07:23:42.198Z,11.50
2022-11-24T07:26:10.766Z,11.30
2022-11-24T07:28:37.982Z,10.20
2022-11-24T07:31:16.393Z,10.00
2022-11-24T07:33:43.220Z,11.50
2022-11-24T07:36:10.137Z,11.80
2022-11-24T07:38:36.893Z,11.70
2022-11-24T07:41:08.770Z,12.00
2022-11-24T07:43:36.826Z,11.10
2022-11-24T07:46:05.171Z,11.60
2022-11-24T07:48:32.254Z,10.10
2022-11-24T07:51:04.452Z,11.70
2022-11-24T07:53:31.975Z,11.50
2022-11-24T07:56:00.765Z,10.30
2022-11-24T07:58:35.883Z,9.90
2022-11-24T08:01:29.011Z,10.10
2022-11-24T08:03:56.062Z,10.20
2022-11-24T08:06:26.118Z,10.80
2022-11-24T08:08:55.187Z,10.40
2022-11-24T08:11:22.319Z,10.00
2022-11-24T08:13:49.034Z,9.60
2022-11-24T08:16:19.883Z,9.90
2022-11-24T08:18:54.992Z,10.10
2022-11-24T08:21:23.429Z,9.10
2022-11-24T08:23:53.795Z,10.30
2022-11-24T08:26:20.600Z,10.00
2022-11-24T08:28:48.008Z,10.80
2022-11-24T08:31:18.745Z,10.10
2022-11-24T08:33:46.633Z,10.00
2022-11-24T08:36:16.809Z,11.60
2022-11-24T08:38:44.707Z,11.60
2022-11-24T08:41:14.044Z,11.50
2022-11-24T08:43:40.892Z,11.40
2022-11-24T08:46:13.799Z,10.10
2022-11-24T08:48:41.514Z,9.80
2022-11-24T08:51:17.596Z,9.60
2022-11-24T08:53:45.687Z,10.60
2022-11-24T08:56:13.357Z,9.80
2022-11-24T08:58:40.950Z,10.10
2022-11-24T09:01:10.708Z,9.90
2022-11-24T09:03:38.348Z,9.80
2022-11-24T09:06:08.953Z,9.50
2022-11-24T09:08:37.088Z,9.90
2022-11-24T09:11:07.149Z,9.50
2022-11-24T09:13:36.022Z,9.70
2022-11-24T09:16:10.676Z,10.40
2022-11-24T09:18:37.933Z,10.70
2022-11-24T09:21:21.136Z,11.40
2022-11-24T09:23:50.652Z,11.30
2022-11-24T09:26:29.282Z,11.80
2022-11-24T09:28:57.336Z,11.20
2022-11-24T09:31:27.008Z,10.80
2022-11-24T09:33:54.461Z,10.20
2022-11-24T09:36:21.617Z,10.70
2022-11-24T09:38:48.379Z,10.80
2022-11-24T09:41:18.342Z,10.50
2022-11-24T09:44:04.658Z,10.50
2022-11-24T09:46:56.258Z,10.30
2022-11-24T09:49:35.456Z,10.30
2022-11-24T09:52:08.877Z,10.90
2022-11-24T09:54:38.567Z,11.00
2022-11-24T09:57:07.500Z,10.80
2022-11-24T09:59:35.665Z,10.00
2022-11-24T10:02:02.736Z,12.00
2022-11-24T10:04:35.254Z,11.50
2022-11-24T10:07:46.498Z,11.30
2022-11-24T10:10:13.329Z,10.50
2022-11-24T10:13:01.474Z,10.60
2022-11-24T10:15:56.917Z,11.10
2022-11-24T10:18:35.898Z,11.00
2022-11-24T10:21:08.287Z,11.00
2022-11-24T10:23:57.224Z,10.30
2022-11-24T10:26:39.528Z,12.50
2022-11-24T10:29:28.314Z,12.20
2022-11-24T10:31:56.772Z,11.70
2022-11-24T10:34:50.599Z,13.30
2022-11-24T10:37:36.636Z,12.30
2022-11-24T10:40:49.234Z,13.50
2022-11-24T10:43:13.007Z,13.10
2022-11-24T10:45:40.873Z,12.60
2022-11-24T10:48:23.280Z,13.20
2022-11-24T10:50:54.354Z,12.40
2022-11-24T10:53:31.634Z,12.30
2022-11-24T10:56:04.554Z,12.00
2022-11-24T10:58:38.827Z,11.90
2022-11-24T11:01:14.516Z,11.40
2022-11-24T11:03:59.370Z,12.30
2022-11-24T11:06:31.837Z,12.00
2022-11-24T11:09:07.876Z,11.80
2022-11-24T11:11:36.187Z,11.10
2022-11-24T11:14:06.317Z,10.50
2022-11-24T11:16:53.532Z,12.20
2022-11-24T11:19:51.423Z,11.60
2022-11-24T11:22:36.062Z,13.80
2022-11-24T11:25:14.663Z,12.10
2022-11-24T11:27:42.377Z,12.60
2022-11-24T11:36:16.422Z,13.60
2022-11-24T11:38:44.283Z,11.80
2022-11-24T11:41:19.986Z,11.40
2022-11-24T11:43:50.930Z,11.20
2022-11-24T11:46:17.830Z,12.40
2022-11-24T11:48:47.121Z,11.90
2022-11-24T11:54:30.350Z,14.30
2022-11-24T11:57:11.910Z,13.00
2022-11-24T11:59:59.003Z,12.00
2022-11-24T12:02:52.921Z,12.40
2022-11-24T12:05:37.318Z,13.40
2022-11-24T12:08:24.495Z,11.90
2022-11-24T12:10:57.367Z,13.40
2022-11-24T12:13:39.358Z,12.60
2022-11-24T12:16:27.676Z,12.50
2022-11-24T12:19:02.284Z,13.10
2022-11-24T12:21:37.291Z,13.20
2022-11-24T12:24:38.379Z,13.20
2022-11-24T12:27:19.463Z,13.10
2022-11-24T12:30:02.790Z,12.40
2022-11-24T12:33:06.151Z,12.00
2022-11-24T12:36:12.093Z,12.70
2022-11-24T12:38:53.850Z,13.60
2022-11-24T12:41:40.940Z,13.00
2022-11-24T12:44:37.830Z,13.10
2022-11-24T12:47:07.283Z,13.60
2022-11-24T12:50:07.576Z,13.00
2022-11-24T12:52:40.664Z,12.90
2022-11-24T12:55:15.465Z,13.30
2022-11-24T12:58:09.355Z,13.20
2022-11-24T13:00:40.585Z,12.90
2022-11-24T13:03:30.649Z,13.00
2022-11-24T13:06:02.950Z,13.00
2022-11-24T13:08:31.166Z,12.50
2022-11-24T13:11:22.539Z,13.00
2022-11-24T13:14:11.697Z,12.70
2022-11-24T13:17:27.923Z,13.00
2022-11-24T13:19:39.517Z,12.90
2022-11-24T13:22:09.387Z,13.00
2022-11-24T13:24:38.588Z,13.10
2022-11-24T13:27:17.953Z,13.20
2022-11-24T13:29:45.886Z,12.90
2022-11-24T13:32:12.608Z,13.40
2022-11-24T13:34:39.465Z,13.40
2022-11-24T13:37:28.927Z,14.40
2022-11-24T13:40:14.553Z,13.90
2022-11-24T13:42:56.577Z,13.70
2022-11-24T13:45:41.852Z,13.40
2022-11-24T13:48:21.225Z,13.50
2022-11-24T13:50:51.926Z,13.30
2022-11-24T13:53:41.805Z,13.40
2022-11-24T13:56:17.342Z,13.60
2022-11-24T13:58:46.475Z,13.80
2022-11-24T14:01:19.488Z,13.60
2022-11-24T14:06:57.687Z,12.60
2022-11-24T14:09:49.946Z,12.60
2022-11-24T14:12:22.171Z,12.70
2022-11-24T14:14:51.318Z,13.00
2022-11-24T14:17:25.018Z,12.50
2022-11-24T14:19:53.935Z,12.90
2022-11-24T14:22:36.639Z,12.40
2022-11-24T14:25:03.862Z,12.70
2022-11-24T14:27:38.671Z,12.40
2022-11-24T14:30:09.667Z,12.00
2022-11-24T14:32:37.884Z,13.00
2022-11-24T14:35:24.174Z,12.30
2022-11-24T14:37:50.951Z,12.60
2022-11-24T14:40:38.186Z,12.40
2022-11-24T14:43:15.228Z,12.20
2022-11-24T14:46:02.118Z,13.40
2022-11-24T14:48:39.384Z,12.30
2022-11-24T14:51:17.771Z,12.20
2022-11-24T14:53:46.891Z,12.10
2022-11-24T14:56:22.415Z,12.20
2022-11-24T14:58:49.221Z,12.00
2022-11-24T15:01:30.816Z,11.70
2022-11-24T15:04:54.453Z,11.90
2022-11-24T15:07:19.301Z,11.80
2022-11-24T15:09:52.222Z,11.80
2022-11-24T15:12:31.089Z,12.00
2022-11-24T15:15:02.379Z,12.10
2022-11-24T15:17:30.309Z,11.90
2022-11-24T15:20:09.359Z,12.50
2022-11-24T15:22:42.517Z,12.20
2022-11-24T15:25:24.518Z,12.10
2022-11-24T15:27:51.827Z,11.90
2022-11-24T15:30:18.675Z,11.90
2022-11-24T15:32:53.260Z,12.10
2022-11-24T15:35:21.785Z,11.80
2022-11-24T15:37:49.940Z,11.70
2022-11-24T15:40:18.981Z,11.90
2022-11-24T15:42:56.186Z,12.00
2022-11-24T15:45:26.279Z,12.30
2022-11-24T15:47:52.976Z,12.00
2022-11-24T15:50:20.759Z,12.10
2022-11-24T15:52:48.349Z,12.00
2022-11-24T15:55:21.354Z,12.30
2022-11-24T15:57:48.868Z,12.50
2022-11-24T16:00:21.568Z,12.20
2022-11-24T16:02:48.686Z,12.00
2022-11-24T16:05:16.498Z,11.80
2022-11-24T16:07:44.083Z,11.90
2022-11-24T16:10:23.643Z,11.60
2022-11-24T16:12:50.385Z,11.70
2022-11-24T16:15:17.151Z,11.60
2022-11-24T16:17:43.900Z,11.20
2022-11-24T16:20:11.052Z,11.30
2022-11-24T16:22:37.868Z,10.50
2022-11-24T16:25:05.484Z,9.90
2022-11-24T16:27:32.226Z,9.70
2022-11-24T16:29:59.015Z,10.50
2022-11-24T16:32:25.763Z,10.20
2022-11-24T16:34:52.662Z,9.40
2022-11-24T16:37:21.684Z,9.20
2022-11-24T16:39:50.317Z,9.10
2022-11-24T16:42:17.231Z,9.10
2022-11-24T16:44:44.092Z,9.10
2022-11-24T16:47:12.828Z,9.00
2022-11-24T16:49:39.731Z,9.00
2022-11-24T16:52:06.462Z,8.90
2022-11-24T16:54:33.783Z,9.00
2022-11-24T16:57:00.755Z,9.00
2022-11-24T16:59:27.482Z,9.00
2022-11-24T17:01:54.411Z,9.10
2022-11-24T17:04:21.266Z,9.00
2022-11-24T17:06:48.039Z,8.90
2022-11-24T17:09:14.786Z,8.90
2022-11-24T17:11:41.547Z,8.90
2022-11-24T17:14:09.955Z,8.80
2022-11-24T17:16:37.660Z,8.80
2022-11-24T17:19:05.567Z,9.00
2022-11-24T17:21:32.974Z,9.70
2022-11-24T17:24:01.385Z,10.20
2022-11-24T17:26:28.514Z,10.10
2022-11-24T17:28:56.072Z,10.40
2022-11-24T17:31:28.504Z,10.90
2022-11-24T17:33:57.435Z,10.40
2022-11-24T17:36:24.754Z,10.40
2022-11-24T17:38:51.874Z,10.90
2022-11-24T17:41:19.789Z,11.00
2022-11-24T17:43:55.513Z,11.40
2022-11-24T17:46:23.787Z,11.10
2022-11-24T17:48:50.731Z,10.50
2022-11-24T17:51:20.138Z,10.70
2022-11-24T17:53:49.533Z,11.10
2022-11-24T17:56:27.160Z,11.20
2022-11-24T17:58:55.919Z,11.40
2022-11-24T18:01:23.313Z,10.90
2022-11-24T18:03:53.508Z,10.90
2022-11-24T18:06:20.932Z,11.10
2022-11-24T18:08:48.413Z,11.30
2022-11-24T18:11:15.098Z,11.20
2022-11-24T18:13:58.433Z,11.10
2022-11-24T18:16:30.069Z,11.40
2022-11-24T18:19:08.688Z,11.00
2022-11-24T18:21:40.934Z,10.70
2022-11-24T18:24:10.161Z,11.20
2022-11-24T18:26:37.427Z,10.90
2022-11-24T18:29:04.518Z,10.90
2022-11-24T18:31:32.286Z,11.10
2022-11-24T18:34:06.284Z,11.00
2022-11-24T18:36:35.022Z,10.90
2022-11-24T18:39:06.356Z,10.90
2022-11-24T18:41:34.733Z,11.30
2022-11-24T18:44:08.022Z,11.40
2022-11-24T18:46:35.346Z,11.70
2022-11-24T18:49:03.655Z,11.30
2022-11-24T18:51:30.787Z,10.80
2022-11-24T18:53:58.562Z,10.80
2022-11-24T18:56:25.791Z,11.90
2022-11-24T18:58:53.784Z,10.70
2022-11-24T19:01:23.656Z,11.00
2022-11-24T19:03:53.814Z,11.40
2022-11-24T19:06:26.542Z,10.80
2022-11-24T19:08:55.480Z,11.20
2022-11-24T19:11:26.304Z,10.90
2022-11-24T19:13:52.963Z,11.40
2022-11-24T19:16:21.535Z,11.90
2022-11-24T19:18:53.711Z,11.30
2022-11-24T19:21:21.616Z,11.60
2022-11-24T19:23:48.657Z,11.70
2022-11-24T19:26:15.656Z,11.20
2022-11-24T19:28:42.432Z,11.00
2022-11-24T19:31:13.323Z,11.30
2022-11-24T19:33:41.707Z,10.90
2022-11-24T19:36:12.814Z,11.10
2022-11-24T19:38:41.234Z,11.60
2022-11-24T19:41:13.706Z,11.10
2022-11-24T19:43:41.644Z,11.70
2022-11-24T19:46:11.127Z,11.80
2022-11-24T19:48:40.547Z,11.70
2022-11-24T19:51:10.327Z,11.10
2022-11-24T19:53:40.378Z,11.90
2022-11-24T19:56:09.130Z,11.70
2022-11-24T19:58:36.542Z,11.90
2022-11-24T20:01:18.671Z,11.00
2022-11-24T20:03:47.738Z,11.40
2022-11-24T20:06:15.538Z,11.40
2022-11-24T20:08:43.043Z,11.20
2022-11-24T20:11:15.315Z,11.00
2022-11-24T20:13:43.675Z,11.40
2022-11-24T20:16:18.234Z,11.30
2022-11-24T20:18:47.243Z,11.50
2022-11-24T20:21:18.368Z,11.40
2022-11-24T20:23:47.016Z,11.70
2022-11-24T20:26:19.758Z,11.20
2022-11-24T20:28:47.331Z,11.50
2022-11-24T20:31:16.785Z,11.20
2022-11-24T20:33:44.128Z,11.00
2022-11-24T20:36:13.524Z,11.20
2022-11-24T20:38:44.334Z,11.40
2022-11-24T20:41:12.219Z,11.00
2022-11-24T20:43:40.008Z,10.90
2022-11-24T20:46:10.013Z,11.10
2022-11-24T20:48:37.351Z,10.90
2022-11-24T20:51:16.384Z,11.00
2022-11-24T20:53:43.600Z,11.20
2022-11-24T20:56:20.133Z,11.40
2022-11-24T20:58:47.000Z,11.40
2022-11-24T21:01:19.280Z,11.50
2022-11-24T21:03:47.835Z,11.30
2022-11-24T21:06:14.918Z,11.20
2022-11-24T21:08:42.628Z,11.70
2022-11-24T21:11:11.625Z,11.20
2022-11-24T21:13:39.894Z,10.80
2022-11-24T21:16:18.234Z,11.20
2022-11-24T21:18:46.974Z,12.10
2022-11-24T21:21:14.493Z,12.10
2022-11-24T21:23:41.351Z,11.70
2022-11-24T21:26:14.878Z,11.00
2022-11-24T21:28:46.523Z,11.90
2022-11-24T21:31:19.544Z,11.60
2022-11-24T21:33:48.978Z,11.70
2022-11-24T21:36:18.720Z,11.10
2022-11-24T21:38:51.176Z,11.90
2022-11-24T21:41:18.671Z,11.90
2022-11-24T21:43:45.784Z,11.40
2022-11-24T21:46:13.405Z,11.70
2022-11-24T21:48:41.541Z,11.60
2022-11-24T21:51:12.085Z,11.70
2022-11-24T21:53:39.029Z,11.20
2022-11-24T21:56:12.971Z,12.00
2022-11-24T21:58:49.908Z,11.60
2022-11-24T22:01:18.675Z,12.00
2022-11-24T22:03:45.934Z,11.90
2022-11-24T22:06:12.988Z,11.40
2022-11-24T22:08:49.010Z,12.10
2022-11-24T22:11:18.866Z,12.00
2022-11-24T22:13:46.017Z,11.40
2022-11-24T22:16:19.096Z,11.20
2022-11-24T22:18:46.182Z,10.80
2022-11-24T22:21:15.654Z,11.30
2022-11-24T22:23:42.831Z,12.10
2022-11-24T22:26:14.050Z,11.90
2022-11-24T22:28:41.231Z,11.60
2022-11-24T22:31:13.227Z,11.40
2022-11-24T22:33:40.310Z,11.50
2022-11-24T22:36:07.392Z,11.30
2022-11-24T22:38:34.555Z,11.50
2022-11-24T22:41:07.082Z,11.50
2022-11-24T22:43:35.421Z,11.70
2022-11-24T22:46:07.373Z,11.80
2022-11-24T22:48:34.975Z,11.90
2022-11-24T22:51:08.954Z,11.70
2022-11-24T22:53:35.709Z,12.10
2022-11-24T22:56:10.064Z,11.70
2022-11-24T22:58:37.857Z,12.00
2022-11-24T23:01:11.753Z,11.40
2022-11-24T23:03:39.557Z,11.20
2022-11-24T23:06:11.051Z,11.70
2022-11-24T23:08:40.501Z,11.80
2022-11-24T23:11:10.627Z,11.70
2022-11-24T23:13:37.724Z,11.30
2022-11-24T23:16:07.699Z,11.70
2022-11-24T23:18:34.836Z,11.30
2022-11-24T23:21:06.118Z,11.50
2022-11-24T23:23:33.360Z,11.40
2022-11-24T23:26:04.927Z,11.40
2022-11-24T23:28:31.776Z,11.70
2022-11-24T23:31:09.593Z,11.60
2022-11-24T23:33:36.901Z,11.50
2022-11-24T23:36:06.734Z,11.90
2022-11-24T23:38:33.460Z,11.80
2022-11-24T23:41:04.081Z,11.80
2022-11-24T23:43:31.771Z,11.50
2022-11-24T23:46:06.764Z,11.90
2022-11-24T23:48:33.861Z,12.00
2022-11-24T23:51:08.041Z,12.10
2022-11-24T23:53:35.685Z,11.70
2022-11-24T23:56:02.672Z,11.70
2022-11-24T23:58:30.517Z,12.10
